Time;durP1;ratioP1;P1;durP2;ratioP2;P2;SDS_P1;SDS_P2;PMS_P1;PMS_P2;Temp;Humidity;BMP_temperature;BMP_pressure;BME280_temperature;BME280_humidity;BME280_pressure;Samples;Min_cycle;Max_cycle;Signal;HPM_P1;HPM_P2
2022/08/04 00:00:10;;;;;;;35.50;30.47;;;;;;;-144.27;100.00;69759.91;2067206;28;20432;-71
2022/08/04 00:01:16;;;;;;;33.50;30.17;;;;;;;-144.27;100.00;69759.91;2067021;28;20567;-71
2022/08/04 00:02:23;;;;;;;33.93;30.37;;;;;;;-144.27;100.00;69759.91;2066559;28;20432;-71
2022/08/04 00:03:28;;;;;;;32.87;29.70;;;;;;;-144.27;100.00;69759.91;2065713;28;20460;-71
2022/08/04 00:04:39;;;;;;;35.40;31.67;;;;;;;-144.27;100.00;69759.91;2051581;28;20496;-71
2022/08/04 00:05:50;;;;;;;33.27;29.87;;;;;;;-144.27;100.00;69759.91;2059528;28;20924;-71
2022/08/04 00:06:59;;;;;;;33.47;30.17;;;;;;;-144.27;100.00;69759.91;2066828;28;20535;-72
2022/08/04 00:08:05;;;;;;;35.50;31.77;;;;;;;-144.27;100.00;69759.91;2067274;28;20404;-71
2022/08/04 00:09:11;;;;;;;35.80;32.03;;;;;;;-144.27;100.00;69759.91;2067030;28;20412;-71
2022/08/04 00:10:16;;;;;;;35.07;31.37;;;;;;;-144.27;100.00;69759.91;2067221;28;20416;-71
2022/08/04 00:11:21;;;;;;;39.13;32.83;;;;;;;-144.27;100.00;69759.91;2065888;28;20440;-71
2022/08/04 00:12:24;;;;;;;37.27;33.37;;;;;;;-144.27;100.00;69759.91;2066423;28;20436;-71
2022/08/04 00:13:28;;;;;;;35.27;31.57;;;;;;;-144.27;100.00;69759.91;2058266;28;20492;-71
2022/08/04 00:14:34;;;;;;;38.03;34.30;;;;;;;-144.27;100.00;69759.91;2058738;28;20433;-71
2022/08/04 00:15:36;;;;;;;38.03;33.20;;;;;;;-144.27;100.00;69759.91;2067043;28;20495;-71
2022/08/04 00:16:37;;;;;;;37.70;33.40;;;;;;;-144.27;100.00;69759.91;2066906;28;20523;-71
2022/08/04 00:17:42;;;;;;;36.97;33.27;;;;;;;-144.27;100.00;69759.91;2067070;28;21005;-71
2022/08/04 00:18:45;;;;;;;35.70;31.50;;;;;;;-144.27;100.00;69759.91;2066753;28;20452;-71
2022/08/04 00:19:50;;;;;;;35.43;31.77;;;;;;;-144.27;100.00;69759.91;2066948;28;20420;-71
2022/08/04 00:20:55;;;;;;;35.40;31.67;;;;;;;-144.27;100.00;69759.91;2066963;28;20472;-71
2022/08/04 00:22:02;;;;;;;36.70;31.13;;;;;;;-144.27;100.00;69759.91;2066904;28;20449;-71
2022/08/04 00:23:03;;;;;;;37.20;33.30;;;;;;;-144.27;100.00;69759.91;2067053;28;20895;-71
2022/08/04 00:24:06;;;;;;;34.93;31.30;;;;;;;-144.27;100.00;69759.91;2066886;28;20801;-71
2022/08/04 00:25:08;;;;;;;34.87;31.17;;;;;;;-144.27;100.00;69759.91;2066808;28;20947;-71
2022/08/04 00:26:10;;;;;;;35.87;32.10;;;;;;;-144.27;100.00;69759.91;2057777;28;20451;-71
2022/08/04 00:27:11;;;;;;;34.93;31.17;;;;;;;-144.27;100.00;69759.91;2058378;28;20513;-71
2022/08/04 00:28:13;;;;;;;35.03;31.50;;;;;;;-144.27;100.00;69759.91;2058133;28;20519;-71
2022/08/04 00:29:14;;;;;;;36.10;32.37;;;;;;;-144.27;100.00;69759.91;2058252;28;20504;-71
2022/08/04 00:30:16;;;;;;;35.83;32.10;;;;;;;-144.27;100.00;69759.91;2066853;28;20432;-72
2022/08/04 00:31:17;;;;;;;37.63;31.70;;;;;;;-144.27;100.00;69759.91;2066142;28;20197;-71
2022/08/04 00:32:19;;;;;;;35.93;32.13;;;;;;;-144.27;100.00;69759.91;2065748;28;20441;-72
2022/08/04 00:33:20;;;;;;;36.50;32.70;;;;;;;-144.27;100.00;69759.91;2050075;29;20457;-72
2022/08/04 00:34:24;;;;;;;37.47;31.90;;;;;;;-144.27;100.00;69759.91;2058233;28;20437;-71
2022/08/04 00:35:28;;;;;;;35.37;31.67;;;;;;;-144.27;100.00;69759.91;2066473;28;20490;-72
2022/08/04 00:36:29;;;;;;;34.10;30.70;;;;;;;-144.27;100.00;69759.91;2057548;28;20481;-72
2022/08/04 00:37:33;;;;;;;35.07;30.90;;;;;;;-144.27;100.00;69759.91;2058227;28;20433;-72
2022/08/04 00:38:34;;;;;;;34.43;31.00;;;;;;;-144.27;100.00;69759.91;2066795;28;20439;-72
2022/08/04 00:39:36;;;;;;;37.50;33.63;;;;;;;-144.27;100.00;69759.91;2066854;28;20428;-72
2022/08/04 00:40:46;;;;;;;37.67;33.70;;;;;;;-144.27;100.00;69759.91;2066965;28;20200;-71
2022/08/04 00:41:56;;;;;;;37.67;33.60;;;;;;;-144.27;100.00;69759.91;2057902;28;20792;-72
2022/08/04 00:43:07;;;;;;;38.53;34.50;;;;;;;-144.27;100.00;69759.91;2059460;28;20409;-71
2022/08/04 00:44:19;;;;;;;38.53;34.33;;;;;;;-144.27;100.00;69759.91;2066778;28;20432;-72
2022/08/04 00:45:36;;;;;;;38.20;34.23;;;;;;;-144.27;100.00;69759.91;2066802;28;20452;-71
2022/08/04 00:46:54;;;;;;;36.63;32.83;;;;;;;-144.27;100.00;69759.91;2066829;28;20447;-71
2022/08/04 00:48:04;;;;;;;40.13;34.33;;;;;;;-144.27;100.00;69759.91;2066810;28;20408;-71
2022/08/04 00:49:35;;;;;;;39.33;35.10;;;;;;;-144.27;100.00;69759.91;2058071;28;20483;-71
2022/08/04 00:50:44;;;;;;;43.33;37.40;;;;;;;-144.27;100.00;69759.91;2041685;28;20439;-72
2022/08/04 00:51:49;;;;;;;43.93;39.20;;;;;;;-144.27;100.00;69759.91;2057711;28;20456;-71
2022/08/04 00:53:08;;;;;;;45.20;40.23;;;;;;;-144.27;100.00;69759.91;2058749;28;20426;-71
2022/08/04 00:54:11;;;;;;;46.23;39.77;;;;;;;-144.27;100.00;69759.91;2056585;28;20527;-71
2022/08/04 00:55:37;;;;;;;43.37;38.77;;;;;;;-144.27;100.00;69759.91;2058264;28;20452;-71
2022/08/04 00:57:11;;;;;;;45.67;39.93;;;;;;;-144.27;100.00;69759.91;2066340;28;20412;-71
2022/08/04 00:58:22;;;;;;;55.83;39.47;;;;;;;-144.27;100.00;69759.91;2065504;28;20539;-71
2022/08/04 00:59:35;;;;;;;42.30;37.77;;;;;;;-144.27;100.00;69759.91;2066928;28;20463;-72
2022/08/04 01:00:43;;;;;;;44.20;38.90;;;;;;;-144.27;100.00;69759.91;2066865;28;20432;-71
2022/08/04 01:01:57;;;;;;;44.17;39.37;;;;;;;-144.27;100.00;69759.91;2066700;28;20892;-71
2022/08/04 01:03:09;;;;;;;46.57;40.10;;;;;;;-144.27;100.00;69759.91;2065842;28;20871;-71
2022/08/04 01:04:16;;;;;;;48.80;40.10;;;;;;;-144.27;100.00;69759.91;2066170;28;20409;-71
2022/08/04 01:05:20;;;;;;;46.20;40.50;;;;;;;-144.27;100.00;69759.91;2065818;28;20506;-71
2022/08/04 01:06:44;;;;;;;47.57;41.97;;;;;;;-144.27;100.00;69759.91;2065068;28;20490;-71
2022/08/04 01:08:01;;;;;;;49.20;41.90;;;;;;;-144.27;100.00;69759.91;2065872;28;20499;-71
2022/08/04 01:09:13;;;;;;;48.00;42.07;;;;;;;-144.27;100.00;69759.91;2066273;28;20504;-71
2022/08/04 01:10:21;;;;;;;49.00;41.33;;;;;;;-144.27;100.00;69759.91;2066263;28;20451;-71
2022/08/04 01:11:37;;;;;;;50.30;43.07;;;;;;;-144.27;100.00;69759.91;2058251;28;20445;-72
2022/08/04 01:13:05;;;;;;;48.33;41.97;;;;;;;-144.27;100.00;69759.91;2059949;28;20782;-72
2022/08/04 01:14:21;;;;;;;54.50;42.83;;;;;;;-144.27;100.00;69759.91;2057865;28;20464;-72
2022/08/04 01:15:30;;;;;;;50.37;41.73;;;;;;;-144.27;100.00;69759.91;2059991;28;20452;-72
2022/08/04 01:16:37;;;;;;;47.30;41.17;;;;;;;-144.27;100.00;69759.91;2066673;28;20405;-73
2022/08/04 01:17:58;;;;;;;46.03;40.83;;;;;;;-144.27;100.00;69759.91;2066552;28;20895;-71
2022/08/04 01:19:00;;;;;;;50.47;42.17;;;;;;;-144.27;100.00;69759.91;2066363;28;20456;-72
2022/08/04 01:20:06;;;;;;;47.33;42.23;;;;;;;-144.27;100.00;69759.91;2057760;28;21014;-71
2022/08/04 01:21:43;;;;;;;50.20;41.60;;;;;;;-144.27;100.00;69759.91;2058198;28;20517;-71
2022/08/04 01:23:32;;;;;;;53.40;41.13;;;;;;;-144.27;100.00;69759.91;2033799;29;20444;-72
2022/08/04 01:25:11;;;;;;;47.80;40.93;;;;;;;-144.27;100.00;69759.91;2066158;28;20535;-71
2022/08/04 01:26:49;;;;;;;48.40;39.90;;;;;;;-144.27;100.00;69759.91;2065727;28;20471;-71
2022/08/04 01:28:09;;;;;;;46.13;40.17;;;;;;;-144.27;100.00;69759.91;2057733;28;20456;-71
2022/08/04 01:29:13;;;;;;;49.53;41.67;;;;;;;-144.27;100.00;69759.91;2060527;28;20440;-71
2022/08/04 01:30:15;;;;;;;42.37;37.67;;;;;;;-144.27;100.00;69759.91;2066015;28;20491;-72
2022/08/04 01:31:23;;;;;;;44.80;38.93;;;;;;;-144.27;100.00;69759.91;2057664;28;20536;-72
2022/08/04 01:32:26;;;;;;;46.83;40.37;;;;;;;-144.27;100.00;69759.91;2058951;28;20439;-71
2022/08/04 01:33:29;;;;;;;49.43;40.87;;;;;;;-144.27;100.00;69759.91;2066416;28;20446;-71
2022/08/04 01:34:36;;;;;;;49.67;40.77;;;;;;;-144.27;100.00;69759.91;2065723;28;20543;-72
2022/08/04 01:35:43;;;;;;;46.67;41.23;;;;;;;-144.27;100.00;69759.91;2065011;28;20433;-71
2022/08/04 01:36:45;;;;;;;47.00;40.67;;;;;;;-144.27;100.00;69759.91;2058412;28;20548;-71
2022/08/04 01:37:49;;;;;;;50.33;40.37;;;;;;;-144.27;100.00;69759.91;2066318;28;20435;-71
2022/08/04 01:38:53;;;;;;;43.57;38.83;;;;;;;-144.27;100.00;69759.91;2066424;28;20840;-72
2022/08/04 01:40:01;;;;;;;48.93;39.60;;;;;;;-144.27;100.00;69759.91;2065727;28;20530;-71
2022/08/04 01:41:05;;;;;;;45.00;39.70;;;;;;;-144.27;100.00;69759.91;2064799;28;20436;-71
2022/08/04 01:42:10;;;;;;;45.50;40.47;;;;;;;-144.27;100.00;69759.91;2050146;28;20450;-71
2022/08/04 01:43:12;;;;;;;49.67;41.63;;;;;;;-144.27;100.00;69759.91;2058197;28;20773;-72
2022/08/04 01:44:17;;;;;;;47.63;40.27;;;;;;;-144.27;100.00;69759.91;2066247;28;20494;-71
2022/08/04 01:45:19;;;;;;;51.13;41.30;;;;;;;-144.27;100.00;69759.91;2066299;28;20485;-71
2022/08/04 01:46:20;;;;;;;44.67;40.07;;;;;;;-144.27;100.00;69759.91;2066179;28;20895;-72
2022/08/04 01:47:22;;;;;;;45.67;40.57;;;;;;;-144.27;100.00;69759.91;2065504;28;20447;-72
2022/08/04 01:48:24;;;;;;;43.33;38.70;;;;;;;-144.27;100.00;69759.91;2065214;28;20490;-71
2022/08/04 01:49:30;;;;;;;45.73;40.63;;;;;;;-144.27;100.00;69759.91;2057548;28;20437;-71
2022/08/04 01:50:35;;;;;;;45.30;39.67;;;;;;;-144.27;100.00;69759.91;2066251;28;20464;-71
2022/08/04 01:51:38;;;;;;;50.07;40.33;;;;;;;-144.27;100.00;69759.91;2065888;28;20468;-72
2022/08/04 01:52:43;;;;;;;47.00;40.50;;;;;;;-144.27;100.00;69759.91;2066189;28;20439;-72
2022/08/04 01:53:44;;;;;;;48.73;41.43;;;;;;;-144.27;100.00;69759.91;2066183;28;20433;-71
2022/08/04 01:54:46;;;;;;;49.37;43.00;;;;;;;-144.27;100.00;69759.91;2065506;28;20444;-71
2022/08/04 01:55:48;;;;;;;47.67;41.57;;;;;;;-144.27;100.00;69759.91;2065684;28;20523;-71
2022/08/04 01:56:50;;;;;;;47.40;41.17;;;;;;;-144.27;100.00;69759.91;2057516;28;20433;-72
2022/08/04 01:57:53;;;;;;;48.20;42.80;;;;;;;-144.27;100.00;69759.91;2057634;28;20463;-70
2022/08/04 01:58:56;;;;;;;51.47;40.83;;;;;;;-144.27;100.00;69759.91;2065443;28;20475;-71
2022/08/04 02:00:00;;;;;;;50.33;41.33;;;;;;;-144.27;100.00;69759.91;2065586;28;20439;-71
2022/08/04 02:01:04;;;;;;;45.43;40.40;;;;;;;-144.27;100.00;69759.91;2066134;28;20969;-71
2022/08/04 02:02:05;;;;;;;46.03;39.57;;;;;;;-144.27;100.00;69759.91;2057484;28;20545;-71
2022/08/04 02:03:07;;;;;;;48.23;40.53;;;;;;;-144.27;100.00;69759.91;2049492;28;20500;-71
2022/08/04 02:04:12;;;;;;;46.47;40.87;;;;;;;-144.27;100.00;69759.91;2057675;28;20561;-71
2022/08/04 02:05:16;;;;;;;45.73;40.73;;;;;;;-144.27;100.00;69759.91;2057465;28;20528;-71
2022/08/04 02:06:26;;;;;;;46.90;39.03;;;;;;;-144.27;100.00;69759.91;2057331;28;20460;-71
2022/08/04 02:07:40;;;;;;;44.33;39.57;;;;;;;-144.27;100.00;69759.91;2066356;28;20808;-72
2022/08/04 02:08:53;;;;;;;46.50;39.20;;;;;;;-144.27;100.00;69759.91;2057435;28;20472;-72
2022/08/04 02:10:04;;;;;;;47.23;39.13;;;;;;;-144.27;100.00;69759.91;2059213;28;20405;-71
2022/08/04 02:11:09;;;;;;;42.10;37.80;;;;;;;-144.27;100.00;69759.91;2066246;28;20417;-71
2022/08/04 02:12:19;;;;;;;45.43;37.70;;;;;;;-144.27;100.00;69759.91;2065420;28;20444;-71
2022/08/04 02:13:28;;;;;;;44.60;38.87;;;;;;;-144.27;100.00;69759.91;2065598;28;20464;-72
2022/08/04 02:14:40;;;;;;;50.27;39.77;;;;;;;-144.27;100.00;69759.91;2066273;28;20417;-72
2022/08/04 02:15:51;;;;;;;42.27;37.87;;;;;;;-144.27;100.00;69759.91;2057409;28;21039;-71
2022/08/04 02:16:54;;;;;;;49.17;39.23;;;;;;;-144.27;100.00;69759.91;2059077;28;20442;-72
2022/08/04 02:18:04;;;;;;;41.70;37.13;;;;;;;-144.27;100.00;69759.91;2065431;28;20861;-72
2022/08/04 02:19:13;;;;;;;44.13;37.20;;;;;;;-144.27;100.00;69759.91;2065496;28;20889;-71
2022/08/04 02:20:22;;;;;;;41.47;37.03;;;;;;;-144.27;100.00;69759.91;2065448;28;20866;-72
2022/08/04 02:21:25;;;;;;;41.97;37.50;;;;;;;-144.27;100.00;69759.91;2063768;28;20459;-71
2022/08/04 02:22:27;;;;;;;41.93;37.40;;;;;;;-144.27;100.00;69759.91;2057953;28;20527;-71
2022/08/04 02:23:34;;;;;;;44.00;37.60;;;;;;;-144.27;100.00;69759.91;2057350;28;20456;-71
2022/08/04 02:24:43;;;;;;;45.83;37.97;;;;;;;-144.27;100.00;69759.91;2058492;28;20414;-71
2022/08/04 02:25:47;;;;;;;43.83;38.23;;;;;;;-144.27;100.00;69759.91;2065334;28;20503;-71
2022/08/04 02:26:49;;;;;;;42.13;37.53;;;;;;;-144.27;100.00;69759.91;2064668;28;20454;-71
2022/08/04 02:28:12;;;;;;;45.87;38.03;;;;;;;-144.27;100.00;69759.91;2049498;28;20426;-72
2022/08/04 02:29:17;;;;;;;46.20;37.73;;;;;;;-144.27;100.00;69759.91;2052304;28;20448;-72
2022/08/04 02:30:18;;;;;;;45.17;37.77;;;;;;;-144.27;100.00;69759.91;2049778;28;20948;-71
2022/08/04 02:31:28;;;;;;;45.30;38.23;;;;;;;-144.27;100.00;69759.91;2049394;28;20446;-71
2022/08/04 02:32:30;;;;;;;42.20;37.70;;;;;;;-144.27;100.00;69759.91;2057270;28;20201;-72
2022/08/04 02:33:36;;;;;;;40.80;36.50;;;;;;;-144.27;100.00;69759.91;2057636;28;20501;-71
2022/08/04 02:34:41;;;;;;;41.20;36.20;;;;;;;-144.27;100.00;69759.91;2065273;28;20440;-71
2022/08/04 02:35:46;;;;;;;48.50;36.30;;;;;;;-144.27;100.00;69759.91;2065031;28;20963;-72
2022/08/04 02:36:47;;;;;;;42.23;37.33;;;;;;;-144.27;100.00;69759.91;2057414;28;20837;-71
2022/08/04 02:37:57;;;;;;;43.37;38.77;;;;;;;-144.27;100.00;69759.91;2065954;28;20435;-72
2022/08/04 02:39:00;;;;;;;43.20;38.20;;;;;;;-144.27;100.00;69759.91;2066073;28;20918;-71
2022/08/04 02:40:05;;;;;;;45.23;38.50;;;;;;;-144.27;100.00;69759.91;2065182;28;20459;-71
2022/08/04 02:41:08;;;;;;;43.10;38.50;;;;;;;-144.27;100.00;69759.91;2065636;28;20871;-71
2022/08/04 02:42:12;;;;;;;55.63;42.47;;;;;;;-144.27;100.00;69759.91;2065993;28;20439;-71
2022/08/04 02:43:14;;;;;;;46.00;39.63;;;;;;;-144.27;100.00;69759.91;2065985;28;20439;-71
2022/08/04 02:44:25;;;;;;;52.17;41.43;;;;;;;-144.27;100.00;69759.91;2065331;28;20475;-72
2022/08/04 02:45:26;;;;;;;53.60;42.40;;;;;;;-144.27;100.00;69759.91;2065578;28;20404;-71
2022/08/04 02:46:30;;;;;;;50.27;44.13;;;;;;;-144.27;100.00;69759.91;2065291;28;20480;-71
2022/08/04 02:47:31;;;;;;;50.63;42.23;;;;;;;-144.27;100.00;69759.91;2057243;28;20548;-74
2022/08/04 02:48:34;;;;;;;48.07;40.80;;;;;;;-144.27;100.00;69759.91;2057227;28;20445;-72
2022/08/04 02:49:38;;;;;;;48.57;40.13;;;;;;;-144.27;100.00;69759.91;2065442;28;20209;-72
2022/08/04 02:50:40;;;;;;;49.47;40.73;;;;;;;-144.27;100.00;69759.91;2065255;28;20982;-72
2022/08/04 02:51:45;;;;;;;46.40;40.20;;;;;;;-144.27;100.00;69759.91;2064784;28;20512;-72
2022/08/04 02:52:46;;;;;;;52.70;41.43;;;;;;;-144.27;100.00;69759.91;2057861;28;20432;-73
2022/08/04 02:53:50;;;;;;;45.70;40.53;;;;;;;-144.27;100.00;69759.91;2057200;28;20453;-72
2022/08/04 02:54:54;;;;;;;48.53;39.73;;;;;;;-144.27;100.00;69759.91;2057565;28;20437;-72
2022/08/04 02:55:55;;;;;;;43.73;39.10;;;;;;;-144.27;100.00;69759.91;2065175;28;20957;-73
2022/08/04 02:56:59;;;;;;;43.73;38.57;;;;;;;-144.27;100.00;69759.91;2065252;28;20487;-72
2022/08/04 02:58:01;;;;;;;45.07;40.17;;;;;;;-144.27;100.00;69759.91;2049550;28;20914;-72
2022/08/04 02:59:05;;;;;;;43.23;38.53;;;;;;;-144.27;100.00;69759.91;2057455;28;20440;-72
2022/08/04 03:00:09;;;;;;;48.50;39.13;;;;;;;-144.27;100.00;69759.91;2057805;28;20488;-72
2022/08/04 03:01:11;;;;;;;53.97;42.30;;;;;;;-144.27;100.00;69759.91;2059176;28;20445;-72
2022/08/04 03:02:14;;;;;;;50.10;41.30;;;;;;;-144.27;100.00;69759.91;2067057;28;20439;-73
2022/08/04 03:03:25;;;;;;;49.33;42.30;;;;;;;-144.27;100.00;69759.91;2066832;28;20526;-72
2022/08/04 03:04:47;;;;;;;50.10;42.00;;;;;;;-144.27;100.00;69759.91;2067164;28;20409;-73
2022/08/04 03:06:18;;;;;;;52.20;42.60;;;;;;;-144.27;100.00;69759.91;2066759;28;20527;-72
2022/08/04 03:07:42;;;;;;;53.17;41.43;;;;;;;-144.27;100.00;69759.91;2058595;28;20457;-73
2022/08/04 03:09:17;;;;;;;49.17;41.10;;;;;;;-144.27;100.00;69759.91;2062237;28;20491;-72
2022/08/04 03:10:30;;;;;;;51.83;41.63;;;;;;;-144.27;100.00;69759.91;2062536;28;20470;-73
2022/08/04 03:12:26;;;;;;;48.93;41.03;;;;;;;-144.27;100.00;69759.91;2067673;28;20499;-72
2022/08/04 03:13:56;;;;;;;51.20;41.40;;;;;;;-144.27;100.00;69759.91;2031193;29;20626;-72
2022/08/04 03:15:20;;;;;;;52.37;40.90;;;;;;;-144.27;100.00;69759.91;2038338;29;20502;-73
2022/08/04 03:16:31;;;;;;;51.93;42.63;;;;;;;-144.27;100.00;69759.91;2064313;28;20459;-72
2022/08/04 03:18:06;;;;;;;50.57;42.60;;;;;;;-144.27;100.00;69759.91;2067588;28;20415;-72
2022/08/04 03:19:51;;;;;;;54.10;43.70;;;;;;;-144.27;100.00;69759.91;2067369;28;20464;-72
2022/08/04 03:21:11;;;;;;;54.13;43.27;;;;;;;-144.27;100.00;69759.91;2026339;29;20459;-72
2022/08/04 03:22:29;;;;;;;54.77;43.53;;;;;;;-144.27;100.00;69759.91;2053237;28;20449;-72
2022/08/04 03:23:56;;;;;;;54.20;44.10;;;;;;;-144.27;100.00;69759.91;2061129;28;20843;-73
2022/08/04 03:25:24;;;;;;;55.37;45.03;;;;;;;-144.27;100.00;69759.91;2067353;28;20432;-73
2022/08/04 03:26:39;;;;;;;55.90;44.03;;;;;;;-144.27;100.00;69759.91;2066666;28;21012;-71
2022/08/04 03:28:20;;;;;;;57.47;45.13;;;;;;;-144.27;100.00;69759.91;2066939;28;20478;-72
2022/08/04 03:29:54;;;;;;;52.63;43.87;;;;;;;-144.27;100.00;69759.91;2011417;29;20441;-72
2022/08/04 03:31:23;;;;;;;51.97;43.77;;;;;;;-144.27;100.00;69759.91;2045669;28;20455;-72
2022/08/04 03:33:21;;;;;;;50.77;42.37;;;;;;;-144.27;100.00;69759.91;2054382;28;20502;-71
2022/08/04 03:34:36;;;;;;;54.53;43.00;;;;;;;-144.27;100.00;69759.91;2058014;28;20496;-71
2022/08/04 03:36:17;;;;;;;60.10;42.70;;;;;;;-144.27;100.00;69759.91;2060965;28;20446;-71
2022/08/04 03:37:39;;;;;;;56.97;45.10;;;;;;;-144.27;100.00;69759.91;2050118;29;20462;-73
2022/08/04 03:39:12;;;;;;;60.07;45.13;;;;;;;-144.27;100.00;69759.91;2058570;28;20483;-71
2022/08/04 03:40:36;;;;;;;55.67;43.40;;;;;;;-144.27;100.00;69759.91;2063905;28;20415;-71
2022/08/04 03:41:55;;;;;;;55.07;43.60;;;;;;;-144.27;100.00;69759.91;2066943;28;20444;-71
2022/08/04 03:43:35;;;;;;;63.37;43.60;;;;;;;-144.27;100.00;69759.91;2067025;28;20915;-72
2022/08/04 03:45:08;;;;;;;55.83;44.90;;;;;;;-144.27;100.00;69759.91;2058491;28;20452;-72
2022/08/04 03:46:36;;;;;;;54.07;42.70;;;;;;;-144.27;100.00;69759.91;2054275;28;20444;-71
2022/08/04 03:47:51;;;;;;;57.40;44.93;;;;;;;-144.27;100.00;69759.91;2054019;28;20465;-72
2022/08/04 03:49:18;;;;;;;61.60;45.60;;;;;;;-144.27;100.00;69759.91;2052398;28;20502;-72
2022/08/04 03:54:10;;;;;;;58.80;44.23;;;;;;;-144.27;100.00;69759.91;2063477;28;20405;-72
2022/08/04 03:55:34;;;;;;;52.80;43.37;;;;;;;-144.27;100.00;69759.91;2067246;28;20404;-71
2022/08/04 03:57:00;;;;;;;59.03;42.83;;;;;;;-144.27;100.00;69759.91;2067391;28;20437;-72
2022/08/04 03:58:39;;;;;;;52.83;41.63;;;;;;;-144.27;100.00;69759.91;2066461;28;20455;-72
2022/08/04 03:59:55;;;;;;;52.20;41.50;;;;;;;-144.27;100.00;69759.91;2067075;28;20419;-72
2022/08/04 04:01:08;;;;;;;50.87;41.77;;;;;;;-144.27;100.00;69759.91;2067122;28;20432;-73
2022/08/04 04:02:43;;;;;;;54.27;42.60;;;;;;;-144.27;100.00;69759.91;2067220;28;20400;-74
2022/08/04 04:03:58;;;;;;;53.97;41.87;;;;;;;-144.27;100.00;69759.91;2026582;29;20924;-73
2022/08/04 04:05:05;;;;;;;57.47;41.17;;;;;;;-144.27;100.00;69759.91;2058947;28;20567;-73
2022/08/04 04:06:30;;;;;;;56.17;44.17;;;;;;;-144.27;100.00;69759.91;2066579;28;20440;-73
2022/08/04 04:08:01;;;;;;;56.93;43.30;;;;;;;-144.27;100.00;69759.91;2058176;28;20962;-73
2022/08/04 04:09:31;;;;;;;52.10;43.50;;;;;;;-144.27;100.00;69759.91;2048096;28;20467;-73
2022/08/04 04:10:46;;;;;;;51.77;42.53;;;;;;;-144.27;100.00;69759.91;2062783;28;20524;-73
2022/08/04 04:12:20;;;;;;;54.50;42.03;;;;;;;-144.27;100.00;69759.91;2052712;28;20434;-72
2022/08/04 04:13:30;;;;;;;53.77;42.53;;;;;;;-144.27;100.00;69759.91;2050115;28;20449;-73
2022/08/04 04:14:49;;;;;;;51.33;41.10;;;;;;;-144.27;100.00;69759.91;2051402;28;20537;-71
2022/08/04 04:16:22;;;;;;;47.57;40.97;;;;;;;-144.27;100.00;69759.91;2052691;28;20452;-72
2022/08/04 04:17:45;;;;;;;51.87;40.00;;;;;;;-144.27;100.00;69759.91;2030410;29;20495;-72
2022/08/04 04:19:20;;;;;;;46.10;40.23;;;;;;;-144.27;100.00;69759.91;2052427;28;20563;-72
2022/08/04 04:20:46;;;;;;;52.03;40.17;;;;;;;-144.27;100.00;69759.91;2058808;28;20456;-73
2022/08/04 04:21:58;;;;;;;44.83;39.50;;;;;;;-144.27;100.00;69759.91;2047002;28;20548;-73
2022/08/04 04:23:21;;;;;;;51.33;40.80;;;;;;;-144.27;100.00;69759.91;2059778;28;20408;-72
2022/08/04 04:24:52;;;;;;;49.60;40.70;;;;;;;-144.27;100.00;69759.91;2066263;28;20543;-73
2022/08/04 04:26:05;;;;;;;47.40;40.40;;;;;;;-144.27;100.00;69759.91;2066716;28;20405;-72
2022/08/04 04:27:12;;;;;;;49.47;39.57;;;;;;;-144.27;100.00;69759.91;2067096;28;20568;-73
2022/08/04 04:28:33;;;;;;;49.93;40.07;;;;;;;-144.27;100.00;69759.91;2058213;28;20495;-72
2022/08/04 04:30:05;;;;;;;45.63;38.90;;;;;;;-144.27;100.00;69759.91;2052754;28;20841;-73
2022/08/04 04:31:23;;;;;;;50.90;40.30;;;;;;;-144.27;100.00;69759.91;2051077;28;20460;-71
2022/08/04 04:32:34;;;;;;;48.30;40.63;;;;;;;-144.27;100.00;69759.91;2066846;28;20436;-72
2022/08/04 04:33:42;;;;;;;50.90;39.43;;;;;;;-144.27;100.00;69759.91;2066974;28;20416;-72
2022/08/04 04:34:53;;;;;;;43.10;35.63;;;;;;;-144.27;100.00;69759.91;2067039;28;20524;-72
2022/08/04 04:36:03;;;;;;;49.97;38.33;;;;;;;-144.27;100.00;69759.91;2066518;28;20500;-71
2022/08/04 04:37:20;;;;;;;48.73;37.30;;;;;;;-144.27;100.00;69759.91;2058125;28;20951;-72
2022/08/04 04:38:53;;;;;;;48.27;37.70;;;;;;;-144.27;100.00;69759.91;2060179;28;20570;-72
2022/08/04 04:40:07;;;;;;;45.50;38.03;;;;;;;-144.27;100.00;69759.91;2066844;28;20405;-72
2022/08/04 04:41:22;;;;;;;43.30;38.60;;;;;;;-144.27;100.00;69759.91;2058136;28;20451;-72
2022/08/04 04:42:38;;;;;;;52.07;37.23;;;;;;;-144.27;100.00;69759.91;2060342;28;20496;-72
2022/08/04 04:43:55;;;;;;;45.23;37.07;;;;;;;-144.27;100.00;69759.91;2066909;28;20439;-71
2022/08/04 04:45:24;;;;;;;41.27;36.00;;;;;;;-144.27;100.00;69759.91;2066889;28;20464;-72
2022/08/04 04:46:35;;;;;;;41.57;35.27;;;;;;;-144.27;100.00;69759.91;2066892;28;20413;-71
2022/08/04 04:47:46;;;;;;;43.47;35.27;;;;;;;-144.27;100.00;69759.91;2066786;28;20412;-72
2022/08/04 04:48:50;;;;;;;44.77;35.90;;;;;;;-144.27;100.00;69759.91;2066749;28;20405;-73
2022/08/04 04:49:59;;;;;;;44.10;35.20;;;;;;;-144.27;100.00;69759.91;2058019;28;20866;-72
2022/08/04 04:51:14;;;;;;;39.93;34.37;;;;;;;-144.27;100.00;69759.91;2058933;28;20409;-72
2022/08/04 04:52:23;;;;;;;41.90;33.30;;;;;;;-144.27;100.00;69759.91;2066974;28;20423;-72
2022/08/04 04:53:28;;;;;;;43.00;33.70;;;;;;;-144.27;100.00;69759.91;2066910;28;20416;-72
2022/08/04 04:54:33;;;;;;;41.13;33.47;;;;;;;-144.27;100.00;69759.91;2066081;28;20476;-71
2022/08/04 04:55:41;;;;;;;40.07;33.83;;;;;;;-144.27;100.00;69759.91;2057927;28;20520;-72
2022/08/04 04:56:46;;;;;;;38.50;33.00;;;;;;;-144.27;100.00;69759.91;2059047;28;20552;-73
2022/08/04 04:57:50;;;;;;;43.67;34.17;;;;;;;-144.27;100.00;69759.91;2066852;28;20401;-73
2022/08/04 04:58:52;;;;;;;38.27;33.03;;;;;;;-144.27;100.00;69759.91;2066853;28;20443;-72
2022/08/04 04:59:58;;;;;;;41.43;31.67;;;;;;;-144.27;100.00;69759.91;2066026;28;20464;-71
2022/08/04 05:01:19;;;;;;;35.03;31.43;;;;;;;-144.27;100.00;69759.91;2057921;28;20437;-73
2022/08/04 05:02:51;;;;;;;35.47;31.77;;;;;;;-144.27;100.00;69759.91;2060980;28;20417;-72
2022/08/04 05:04:15;;;;;;;38.67;33.00;;;;;;;-144.27;100.00;69759.91;2066667;28;20471;-72
2022/08/04 05:05:39;;;;;;;36.10;32.20;;;;;;;-144.27;100.00;69759.91;2056175;28;20863;-74
2022/08/04 05:06:54;;;;;;;35.57;31.77;;;;;;;-144.27;100.00;69759.91;2061160;28;20471;-72
2022/08/04 05:08:23;;;;;;;40.93;32.67;;;;;;;-144.27;100.00;69759.91;2066777;28;20396;-73
2022/08/04 05:09:42;;;;;;;37.63;31.60;;;;;;;-144.27;100.00;69759.91;2066846;28;20444;-71
2022/08/04 05:10:56;;;;;;;37.67;31.03;;;;;;;-144.27;100.00;69759.91;2066768;28;20419;-71
2022/08/04 05:12:31;;;;;;;40.13;33.83;;;;;;;-144.27;100.00;69759.91;2066582;28;20423;-72
2022/08/04 05:13:34;;;;;;;40.50;33.67;;;;;;;-144.27;100.00;69759.91;2066537;28;20416;-72
2022/08/04 05:14:41;;;;;;;43.70;33.00;;;;;;;-144.27;100.00;69759.91;2066373;28;20424;-72
2022/08/04 05:15:44;;;;;;;36.50;32.70;;;;;;;-144.27;100.00;69759.91;2066699;28;20405;-73
2022/08/04 05:16:47;;;;;;;38.90;32.80;;;;;;;-144.27;100.00;69759.91;2057754;28;20453;-73
2022/08/04 05:17:50;;;;;;;43.53;33.73;;;;;;;-144.27;100.00;69759.91;2058100;28;20453;-72
2022/08/04 05:18:57;;;;;;;37.40;32.93;;;;;;;-144.27;100.00;69759.91;2066384;28;20471;-73
2022/08/04 05:20:02;;;;;;;48.77;36.93;;;;;;;-144.27;100.00;69759.91;2066749;28;20421;-73
2022/08/04 05:21:18;;;;;;;45.87;37.33;;;;;;;-144.27;100.00;69759.91;2066500;28;20432;-73
2022/08/04 05:22:22;;;;;;;47.00;37.00;;;;;;;-144.27;100.00;69759.91;2066110;28;20736;-73
2022/08/04 05:23:27;;;;;;;46.73;37.73;;;;;;;-144.27;100.00;69759.91;2065734;28;20540;-73
2022/08/04 05:24:30;;;;;;;44.97;37.43;;;;;;;-144.27;100.00;69759.91;2057758;28;20805;-73